Weather at Bourail - Poé Airport

Public forecast

Using degrees Celsius for public forecast. Weather courtesy of forecast.io.

Closest aviation weather report (METAR) to Bourail - Poé Airport

Closest report is La Tontouta International Airport, 51.6 nm (95.5 km) ESE.

2024/06/22 10:00 (retrieved 14 minutes ago)

NWWW 221000Z AUTO 10001KT 9999 BKN048 BKN200 18/16 Q1019 NOSIG

Closest aviation forecast (TAF) to Bourail - Poé Airport

Closest forecast is Koné Airport, 45.7 nm (84.7 km) NW.

2024/06/22 06:00 (retrieved 4 hours ago)

TAF NWWD 220500Z 2206/2306 08008KT 9999 SCT035 BKN190 PROB40 TEMPO 2302/2306 06015G25KT RA